• Join FlightAware (Why Join?)
  • Login
  • US Flag 
06:52AM EDT


 

Airport Tracker/Info


-or-


 

Live Flight TrackerFlight Track Log ✈ AWE2690 ✈ 24-Oct-2013 ✈ KCLT - KIND

Flight Track Log - Related Links

Times and Time Zones

All times are in EDT time to prevent confusion due to time zone crossing. See the AWE2690 flight status page for this flight to view local times or setup timezone preferences in your user account.

Time Position Orientation Groundspeed Altitude Reporting Facility
EDT Latitude Longitude Course Direction KTS MPH feet Rate Location/Type
01:41PM 35.1869 -80.9511 13° North 186 214 1,800  Level Atlanta Center
01:42PM 35.1247 -80.9611 187° South 236 272 4,400 2,820 Climbing Atlanta Center
01:43PM 35.0969 -81.0231 241° Southwest 245 282 7,600 1,860 Climbing Atlanta Center
01:43PM 35.1356 -81.0672 317° Northwest 245 282 8,000 1,080 Climbing Atlanta Center
01:44PM 35.3899 -80.9993 52° Northeast  Level FlightAware Approximate
01:44PM 35.1908 -81.1086 329° Northwest 253 291 9,700  Level Atlanta Center
01:45PM 35.4877 -80.9458 13° North  Level FlightAware Approximate
01:45PM 35.2719 -81.0931 North 248 285 11,500  Level Atlanta Center
01:46PM 35.5957 -80.9141 13° North  Level FlightAware Approximate
01:46PM 35.3650 -81.0564 18° North 316 364 12,900  Level Atlanta Center
01:48PM 35.5378 -81.1369 339° North 323 372 17,200 1,980 Climbing Atlanta Center
01:49PM 35.6117 -81.1700 340° North 342 394 18,900 1,920 Climbing Atlanta Center
01:50PM 35.7214 -81.2250 338° Northwest 352 405 21,100 1,800 Climbing Atlanta Center
01:51PM 35.8183 -81.2678 340° North 362 417 22,500 1,440 Climbing Atlanta Center
01:52PM 35.8972 -81.3369 325° Northwest 355 409 24,000 1,380 Climbing Atlanta Center
01:53PM 35.9556 -81.4300 308° West 344 396 25,300 1,320 Climbing Atlanta Center
01:54PM 36.0181 -81.5253 309° West 349 402 26,700 840 Climbing Atlanta Center
01:55PM 36.0825 -81.6236 309° West 361 415 27,000 420 Climbing Atlanta Center
01:56PM 36.1511 -81.7269 309° West 375 432 27,600 960 Climbing Atlanta Center
01:57PM 36.2178 -81.8281 309° West 385 443 29,000 1,140 Climbing Atlanta Center
01:58PM 36.2842 -81.9292 309° West 392 451 29,900 1,080 Climbing Atlanta Center
01:59PM 36.3525 -82.0306 310° West 385 443 31,200 1,500 Climbing Atlanta Center
02:00PM 36.4167 -82.1297 309° West 385 443 33,000 1,020 Climbing Atlanta Center
02:02PM 36.5119 -82.2733 310° West 358 412 34,000 360 Climbing Indianapolis Center
02:03PM 36.5881 -82.3922 309° West 376 433 34,000  Level Indianapolis Center
02:04PM 36.6567 -82.4986 309° West 392 451 34,000  Level Indianapolis Center
02:05PM 36.7272 -82.6069 309° West 400 460 34,000  Level Indianapolis Center
02:06PM 36.7944 -82.7119 309° West 390 449 34,000  Level Indianapolis Center
02:07PM 36.8592 -82.8125 309° West 377 434 34,000  Level Indianapolis Center
02:08PM 36.9322 -82.9286 308° West 370 426 34,000  Level Indianapolis Center
02:09PM 36.9933 -83.0247 309° West 373 429 34,000  Level Indianapolis Center
02:10PM 37.0569 -83.1247 309° West 370 426 34,000  Level Indianapolis Center
02:11PM 37.1294 -83.2397 308° West 362 417 34,000  Level Indianapolis Center
02:12PM 37.1911 -83.3367 309° West 355 409 34,000  Level Indianapolis Center
02:13PM 37.2519 -83.4339 308° West 354 407 34,000  Level Indianapolis Center
02:14PM 37.3133 -83.5314 308° West 354 407 34,000  Level Indianapolis Center
02:16PM 37.3744 -83.6289 308° West 355 409 34,000  Level Indianapolis Center
02:17PM 37.4347 -83.7272 308° West 355 409 34,000  Level Indianapolis Center
02:18PM 37.5061 -83.8408 308° West 355 409 34,000  Level Indianapolis Center
02:19PM 37.5681 -83.9408 308° West 360 414 34,000 -240 Level Indianapolis Center
02:20PM 37.6311 -84.0433 308° West 369 425 33,600 -780 Descending Indianapolis Center
02:21PM 37.6928 -84.1436 308° West 363 418 32,400 -1,140 Descending Indianapolis Center
02:22PM 37.7511 -84.2392 308° West 345 397 31,300 -1,200 Descending Indianapolis Center
02:23PM 37.8206 -84.3517 308° West 349 402 30,000 -1,200 Descending Indianapolis Center
02:24PM 37.8783 -84.4464 308° West 342 394 28,900 -1,020 Descending Indianapolis Center
02:25PM 37.9344 -84.5389 308° West 332 382 28,000 -480 Descending Indianapolis Center
02:26PM 37.9900 -84.6328 307° West 332 382 28,000  Level Indianapolis Center
02:27PM 38.0469 -84.7247 308° West 332 382 28,000  Level Indianapolis Center
02:28PM 38.1122 -84.8347 307° West 335 386 28,000  Level Indianapolis Center
02:29PM 38.1700 -84.9286 308° West 335 386 28,000  Level Indianapolis Center
02:30PM 38.2261 -85.0203 308° West 330 380 28,000  Level Indianapolis Center
02:31PM 38.2811 -85.1142 307° West 329 379 28,000  Level Indianapolis Center
02:32PM 38.3358 -85.2100 306° West 328 377 28,000 -360 Level Indianapolis Center
02:33PM 38.3933 -85.3031 308° West 331 381 27,300 -840 Descending Indianapolis Center
02:34PM 38.4486 -85.3947 308° West 326 375 26,300 -1,020 Descending Indianapolis Center
02:35PM 38.5011 -85.4867 306° West 319 367 25,300 -1,140 Descending Indianapolis Center
02:36PM 38.5672 -85.5961 308° West 322 371 24,000 -1,380 Descending Indianapolis Center
02:37PM 38.6547 -85.6469 336° Northwest 355 409 22,500 -1,860 Descending Indianapolis Center
02:38PM 38.7542 -85.6661 351° North 365 420 20,200 -2,220 Descending Indianapolis Center
02:39PM 38.8544 -85.6847 352° North 365 420 18,000 -2,040 Descending Indianapolis Center
02:40PM 38.9567 -85.7031 352° North 371 427 16,000 -1,920 Descending Indianapolis Center
02:41PM 39.0550 -85.7200 352° North 362 417 14,100 -1,140 Descending Indianapolis Center
02:42PM 39.1519 -85.7375 352° North 357 411 13,700 -1,080 Descending Indianapolis Center
02:43PM 39.2650 -85.7572 352° North 347 399 11,900 -1,680 Descending Indianapolis Center
02:44PM 39.3433 -85.8025 336° Northwest 324 373 10,300 -960 Descending Indianapolis Center
02:46PM 39.4003 -85.8717 317° Northwest 289 333 10,000 -240 Descending Indianapolis Center
02:47PM 39.4572 -85.9369 318° Northwest 278 320 9,900 -840 Descending Indianapolis Center
02:48PM 39.5114 -86.0022 317° Northwest 271 312 8,300 -1,440 Descending Indianapolis Center
02:49PM 39.5764 -86.0797 317° Northwest 267 307 7,000 -660 Descending Indianapolis Center
02:50PM 39.6267 -86.1408 317° Northwest 256 295 7,000  Level Indianapolis Center
02:51PM 39.6822 -86.1708 337° Northwest 244 281 7,000  Level Indianapolis Center
02:52PM 39.7283 -86.1086 46° Northeast 245 282 7,000 -300 Level Indianapolis Center
02:53PM 39.7678 -86.0522 48° Northeast 220 253 6,400 -960 Descending Indianapolis Center
02:54PM 39.8139 -86.0017 40° Northeast 207 238 5,000 -960 Descending Indianapolis Center
02:55PM 39.8500 -86.0428 319° Northwest 189 217 4,400 -540 Descending Indianapolis Center
02:56PM 39.8511 -86.1008 271° West 190 219 4,000 -300 Descending Indianapolis Center
02:57PM 39.8183 -86.1536 231° Southwest 190 219 3,800 -720 Descending Indianapolis Center
02:58PM 39.7811 -86.2014 225° Southwest 190 219 2,600 -1,080 Descending Indianapolis Center
02:59PM 39.7439 -86.2481 224° Southwest 165 190 1,600 -840 Descending Indianapolis Center
03:00PM 39.7200 -86.2783 224° Southwest 151 174 900 -420 Descending Indianapolis Center
03:01PM 39.7081 -86.2981 232° Southwest 78 90 800 -60 Descending Indianapolis Center
03:02PM 39.7111 -86.2939 46° Northeast 36 41 800  Level Indianapolis Center
03:03PM 39.7167 -86.2917 17° North 25 29 800  Level Indianapolis Center
03:04PM 39.7183 -86.2972 291° West 19 22 800  Level Indianapolis Center